sensor_id;sensor_type;location;lat;lon;timestamp;P1;durP1;ratioP1;P2;durP2;ratioP2
47804;SDS011;33568;45.286;9.900;2023-04-21T00:01:03;8.40;;;7.50;;
47804;SDS011;33568;45.286;9.900;2023-04-21T00:03:33;9.27;;;7.63;;
47804;SDS011;33568;45.286;9.900;2023-04-21T00:06:06;8.15;;;7.43;;
47804;SDS011;33568;45.286;9.900;2023-04-21T00:08:34;9.38;;;7.63;;
47804;SDS011;33568;45.286;9.900;2023-04-21T00:11:06;8.65;;;7.78;;
47804;SDS011;33568;45.286;9.900;2023-04-21T00:13:35;16.40;;;7.97;;
47804;SDS011;33568;45.286;9.900;2023-04-21T00:16:02;7.90;;;7.10;;
47804;SDS011;33568;45.286;9.900;2023-04-21T00:18:29;8.73;;;7.82;;
47804;SDS011;33568;45.286;9.900;2023-04-21T00:23:21;7.75;;;7.00;;
47804;SDS011;33568;45.286;9.900;2023-04-21T00:25:48;8.55;;;7.65;;
47804;SDS011;33568;45.286;9.900;2023-04-21T00:28:15;11.18;;;7.90;;
47804;SDS011;33568;45.286;9.900;2023-04-21T00:33:08;8.02;;;7.22;;
47804;SDS011;33568;45.286;9.900;2023-04-21T00:35:34;8.38;;;7.57;;
47804;SDS011;33568;45.286;9.900;2023-04-21T00:40:27;12.40;;;7.70;;
47804;SDS011;33568;45.286;9.900;2023-04-21T00:42:53;10.55;;;7.32;;
47804;SDS011;33568;45.286;9.900;2023-04-21T00:47:46;8.05;;;7.25;;
47804;SDS011;33568;45.286;9.900;2023-04-21T00:52:39;8.43;;;7.43;;
47804;SDS011;33568;45.286;9.900;2023-04-21T00:55:08;9.20;;;7.97;;
47804;SDS011;33568;45.286;9.900;2023-04-21T00:57:35;9.57;;;8.68;;
47804;SDS011;33568;45.286;9.900;2023-04-21T01:00:05;9.15;;;8.00;;
47804;SDS011;33568;45.286;9.900;2023-04-21T01:02:34;10.02;;;8.57;;
47804;SDS011;33568;45.286;9.900;2023-04-21T01:05:05;8.70;;;7.53;;
47804;SDS011;33568;45.286;9.900;2023-04-21T01:07:34;9.85;;;8.13;;
47804;SDS011;33568;45.286;9.900;2023-04-21T01:10:01;8.57;;;7.63;;
47804;SDS011;33568;45.286;9.900;2023-04-21T01:12:29;8.60;;;7.22;;
47804;SDS011;33568;45.286;9.900;2023-04-21T01:14:58;10.88;;;8.25;;
47804;SDS011;33568;45.286;9.900;2023-04-21T01:19:51;8.45;;;7.32;;
47804;SDS011;33568;45.286;9.900;2023-04-21T01:22:21;7.13;;;6.43;;
47804;SDS011;33568;45.286;9.900;2023-04-21T01:27:16;6.85;;;6.18;;
47804;SDS011;33568;45.286;9.900;2023-04-21T01:29:47;7.18;;;6.47;;
47804;SDS011;33568;45.286;9.900;2023-04-21T01:32:16;9.77;;;6.40;;
47804;SDS011;33568;45.286;9.900;2023-04-21T01:34:48;10.13;;;6.43;;
47804;SDS011;33568;45.286;9.900;2023-04-21T01:37:16;6.72;;;6.13;;
47804;SDS011;33568;45.286;9.900;2023-04-21T01:39:46;6.68;;;6.07;;
47804;SDS011;33568;45.286;9.900;2023-04-21T01:42:17;6.97;;;6.28;;
47804;SDS011;33568;45.286;9.900;2023-04-21T01:44:43;6.63;;;6.00;;
47804;SDS011;33568;45.286;9.900;2023-04-21T01:47:11;9.05;;;6.82;;
47804;SDS011;33568;45.286;9.900;2023-04-21T01:49:38;7.38;;;6.13;;
47804;SDS011;33568;45.286;9.900;2023-04-21T01:54:31;7.97;;;7.18;;
47804;SDS011;33568;45.286;9.900;2023-04-21T01:59:24;7.90;;;6.60;;
47804;SDS011;33568;45.286;9.900;2023-04-21T02:01:51;7.82;;;6.57;;
47804;SDS011;33568;45.286;9.900;2023-04-21T02:06:44;7.83;;;7.03;;
47804;SDS011;33568;45.286;9.900;2023-04-21T02:09:11;8.10;;;7.15;;
47804;SDS011;33568;45.286;9.900;2023-04-21T02:14:04;7.18;;;6.57;;
47804;SDS011;33568;45.286;9.900;2023-04-21T02:16:31;6.50;;;5.88;;
47804;SDS011;33568;45.286;9.900;2023-04-21T02:19:00;8.65;;;7.57;;
47804;SDS011;33568;45.286;9.900;2023-04-21T02:23:52;8.85;;;6.60;;
47804;SDS011;33568;45.286;9.900;2023-04-21T02:26:19;7.75;;;6.68;;
47804;SDS011;33568;45.286;9.900;2023-04-21T02:28:46;11.27;;;6.80;;
47804;SDS011;33568;45.286;9.900;2023-04-21T02:31:15;7.43;;;6.68;;
47804;SDS011;33568;45.286;9.900;2023-04-21T02:33:42;7.38;;;6.63;;
47804;SDS011;33568;45.286;9.900;2023-04-21T02:36:10;7.70;;;6.88;;
47804;SDS011;33568;45.286;9.900;2023-04-21T02:38:37;13.05;;;7.10;;
47804;SDS011;33568;45.286;9.900;2023-04-21T02:41:03;7.05;;;6.35;;
47804;SDS011;33568;45.286;9.900;2023-04-21T02:45:56;12.43;;;7.22;;
47804;SDS011;33568;45.286;9.900;2023-04-21T02:48:23;8.45;;;7.07;;
47804;SDS011;33568;45.286;9.900;2023-04-21T02:50:51;8.63;;;7.28;;
47804;SDS011;33568;45.286;9.900;2023-04-21T02:53:18;8.43;;;6.82;;
47804;SDS011;33568;45.286;9.900;2023-04-21T02:55:45;8.48;;;7.55;;
47804;SDS011;33568;45.286;9.900;2023-04-21T02:58:11;7.70;;;6.72;;
47804;SDS011;33568;45.286;9.900;2023-04-21T03:03:04;8.43;;;7.63;;
47804;SDS011;33568;45.286;9.900;2023-04-21T03:05:31;8.00;;;7.20;;
47804;SDS011;33568;45.286;9.900;2023-04-21T03:07:58;7.80;;;7.00;;
47804;SDS011;33568;45.286;9.900;2023-04-21T03:12:54;8.40;;;7.57;;
47804;SDS011;33568;45.286;9.900;2023-04-21T03:15:21;8.13;;;7.35;;
47804;SDS011;33568;45.286;9.900;2023-04-21T03:20:13;8.57;;;7.13;;
47804;SDS011;33568;45.286;9.900;2023-04-21T03:22:40;8.18;;;7.40;;
47804;SDS011;33568;45.286;9.900;2023-04-21T03:25:07;8.70;;;7.72;;
47804;SDS011;33568;45.286;9.900;2023-04-21T03:27:34;8.88;;;7.32;;
47804;SDS011;33568;45.286;9.900;2023-04-21T03:30:00;8.43;;;7.63;;
47804;SDS011;33568;45.286;9.900;2023-04-21T03:32:27;10.60;;;8.15;;
47804;SDS011;33568;45.286;9.900;2023-04-21T03:37:20;9.95;;;8.32;;
47804;SDS011;33568;45.286;9.900;2023-04-21T03:39:48;10.05;;;7.90;;
47804;SDS011;33568;45.286;9.900;2023-04-21T03:42:15;9.13;;;8.05;;
47804;SDS011;33568;45.286;9.900;2023-04-21T03:47:07;9.05;;;7.13;;
47804;SDS011;33568;45.286;9.900;2023-04-21T03:49:34;10.27;;;8.13;;
47804;SDS011;33568;45.286;9.900;2023-04-21T03:54:27;8.63;;;7.78;;
47804;SDS011;33568;45.286;9.900;2023-04-21T03:56:53;10.05;;;7.80;;
47804;SDS011;33568;45.286;9.900;2023-04-21T04:01:45;8.40;;;7.50;;
47804;SDS011;33568;45.286;9.900;2023-04-21T04:04:12;9.48;;;8.43;;
47804;SDS011;33568;45.286;9.900;2023-04-21T04:06:38;10.30;;;8.27;;
47804;SDS011;33568;45.286;9.900;2023-04-21T04:11:31;8.32;;;7.40;;
47804;SDS011;33568;45.286;9.900;2023-04-21T04:13:57;9.00;;;7.78;;
47804;SDS011;33568;45.286;9.900;2023-04-21T04:16:24;9.88;;;7.80;;
47804;SDS011;33568;45.286;9.900;2023-04-21T04:21:16;10.32;;;8.73;;
47804;SDS011;33568;45.286;9.900;2023-04-21T04:23:43;8.63;;;7.82;;
47804;SDS011;33568;45.286;9.900;2023-04-21T04:26:09;11.63;;;8.65;;
47804;SDS011;33568;45.286;9.900;2023-04-21T04:28:36;9.95;;;8.57;;
47804;SDS011;33568;45.286;9.900;2023-04-21T04:31:03;9.82;;;8.82;;
47804;SDS011;33568;45.286;9.900;2023-04-21T04:35:55;12.30;;;8.57;;
47804;SDS011;33568;45.286;9.900;2023-04-21T04:38:23;10.27;;;8.27;;
47804;SDS011;33568;45.286;9.900;2023-04-21T04:40:58;10.85;;;8.63;;
47804;SDS011;33568;45.286;9.900;2023-04-21T04:43:27;9.27;;;8.40;;
47804;SDS011;33568;45.286;9.900;2023-04-21T04:48:19;10.43;;;9.15;;
47804;SDS011;33568;45.286;9.900;2023-04-21T04:50:45;9.23;;;8.32;;
47804;SDS011;33568;45.286;9.900;2023-04-21T04:55:38;14.73;;;8.30;;
47804;SDS011;33568;45.286;9.900;2023-04-21T04:58:04;11.75;;;8.60;;
47804;SDS011;33568;45.286;9.900;2023-04-21T05:00:31;9.30;;;8.40;;
47804;SDS011;33568;45.286;9.900;2023-04-21T05:02:58;10.00;;;8.75;;
47804;SDS011;33568;45.286;9.900;2023-04-21T05:05:24;10.25;;;9.00;;
47804;SDS011;33568;45.286;9.900;2023-04-21T05:07:51;8.52;;;7.70;;
47804;SDS011;33568;45.286;9.900;2023-04-21T05:12:43;9.68;;;8.35;;
47804;SDS011;33568;45.286;9.900;2023-04-21T05:15:10;14.27;;;9.45;;
47804;SDS011;33568;45.286;9.900;2023-04-21T05:17:36;10.93;;;8.63;;
47804;SDS011;33568;45.286;9.900;2023-04-21T05:20:03;13.35;;;8.32;;
47804;SDS011;33568;45.286;9.900;2023-04-21T05:22:31;12.75;;;8.65;;
47804;SDS011;33568;45.286;9.900;2023-04-21T05:25:01;10.10;;;8.10;;
47804;SDS011;33568;45.286;9.900;2023-04-21T05:27:27;10.30;;;9.27;;
47804;SDS011;33568;45.286;9.900;2023-04-21T05:32:20;9.95;;;8.70;;
47804;SDS011;33568;45.286;9.900;2023-04-21T05:34:46;9.85;;;8.95;;
47804;SDS011;33568;45.286;9.900;2023-04-21T05:39:39;12.13;;;8.55;;
47804;SDS011;33568;45.286;9.900;2023-04-21T05:42:07;9.82;;;8.82;;
47804;SDS011;33568;45.286;9.900;2023-04-21T05:44:37;9.95;;;8.50;;
47804;SDS011;33568;45.286;9.900;2023-04-21T05:47:04;10.63;;;8.38;;
47804;SDS011;33568;45.286;9.900;2023-04-21T05:49:31;10.55;;;8.35;;
47804;SDS011;33568;45.286;9.900;2023-04-21T05:51:57;9.93;;;8.25;;
47804;SDS011;33568;45.286;9.900;2023-04-21T05:54:23;9.45;;;8.32;;
47804;SDS011;33568;45.286;9.900;2023-04-21T05:56:50;11.35;;;7.80;;
47804;SDS011;33568;45.286;9.900;2023-04-21T06:01:42;9.10;;;8.10;;
47804;SDS011;33568;45.286;9.900;2023-04-21T06:06:35;10.57;;;8.65;;
47804;SDS011;33568;45.286;9.900;2023-04-21T06:09:01;9.65;;;8.75;;
47804;SDS011;33568;45.286;9.900;2023-04-21T06:13:54;8.90;;;8.10;;
47804;SDS011;33568;45.286;9.900;2023-04-21T06:16:23;8.45;;;7.50;;
47804;SDS011;33568;45.286;9.900;2023-04-21T06:21:15;8.98;;;8.07;;
47804;SDS011;33568;45.286;9.900;2023-04-21T06:26:08;9.70;;;7.85;;
47804;SDS011;33568;45.286;9.900;2023-04-21T06:31:02;12.07;;;7.85;;
47804;SDS011;33568;45.286;9.900;2023-04-21T06:33:29;9.95;;;7.32;;
47804;SDS011;33568;45.286;9.900;2023-04-21T06:38:21;9.20;;;7.25;;
47804;SDS011;33568;45.286;9.900;2023-04-21T06:43:15;7.25;;;6.63;;
47804;SDS011;33568;45.286;9.900;2023-04-21T06:48:07;8.43;;;6.30;;
47804;SDS011;33568;45.286;9.900;2023-04-21T06:53:00;9.43;;;6.60;;
47804;SDS011;33568;45.286;9.900;2023-04-21T06:55:27;10.10;;;6.18;;
47804;SDS011;33568;45.286;9.900;2023-04-21T06:57:54;9.93;;;7.20;;
47804;SDS011;33568;45.286;9.900;2023-04-21T07:00:20;8.93;;;8.02;;
47804;SDS011;33568;45.286;9.900;2023-04-21T07:02:47;13.88;;;7.72;;
47804;SDS011;33568;45.286;9.900;2023-04-21T07:05:13;7.25;;;6.53;;
47804;SDS011;33568;45.286;9.900;2023-04-21T07:10:06;7.93;;;6.45;;
47804;SDS011;33568;45.286;9.900;2023-04-21T07:12:33;8.25;;;7.18;;
47804;SDS011;33568;45.286;9.900;2023-04-21T07:17:25;12.38;;;6.78;;
47804;SDS011;33568;45.286;9.900;2023-04-21T07:22:18;8.77;;;6.10;;
47804;SDS011;33568;45.286;9.900;2023-04-21T07:27:11;7.05;;;6.20;;
47804;SDS011;33568;45.286;9.900;2023-04-21T07:29:37;7.65;;;6.38;;
47804;SDS011;33568;45.286;9.900;2023-04-21T07:34:30;7.30;;;6.60;;
47804;SDS011;33568;45.286;9.900;2023-04-21T07:39:22;7.25;;;6.55;;
47804;SDS011;33568;45.286;9.900;2023-04-21T07:44:15;7.40;;;6.70;;
47804;SDS011;33568;45.286;9.900;2023-04-21T07:49:08;8.18;;;6.45;;
47804;SDS011;33568;45.286;9.900;2023-04-21T07:51:35;10.73;;;6.55;;
47804;SDS011;33568;45.286;9.900;2023-04-21T07:54:01;9.13;;;8.23;;
47804;SDS011;33568;45.286;9.900;2023-04-21T07:58:54;6.78;;;6.13;;
47804;SDS011;33568;45.286;9.900;2023-04-21T08:03:48;8.52;;;7.20;;
47804;SDS011;33568;45.286;9.900;2023-04-21T08:08:41;9.35;;;7.32;;
47804;SDS011;33568;45.286;9.900;2023-04-21T08:13:33;8.88;;;6.50;;
47804;SDS011;33568;45.286;9.900;2023-04-21T08:16:00;6.70;;;6.00;;
47804;SDS011;33568;45.286;9.900;2023-04-21T08:20:53;7.07;;;6.35;;
47804;SDS011;33568;45.286;9.900;2023-04-21T08:23:22;6.97;;;6.03;;
47804;SDS011;33568;45.286;9.900;2023-04-21T08:25:48;6.55;;;5.95;;
47804;SDS011;33568;45.286;9.900;2023-04-21T08:30:41;8.82;;;6.40;;
47804;SDS011;33568;45.286;9.900;2023-04-21T08:35:39;11.10;;;6.38;;
47804;SDS011;33568;45.286;9.900;2023-04-21T08:38:06;8.80;;;6.35;;
47804;SDS011;33568;45.286;9.900;2023-04-21T08:40:34;10.70;;;6.38;;
47804;SDS011;33568;45.286;9.900;2023-04-21T08:43:03;12.30;;;7.05;;
47804;SDS011;33568;45.286;9.900;2023-04-21T08:45:31;7.82;;;6.60;;
47804;SDS011;33568;45.286;9.900;2023-04-21T08:47:59;7.85;;;6.78;;
47804;SDS011;33568;45.286;9.900;2023-04-21T08:50:27;7.95;;;6.38;;
47804;SDS011;33568;45.286;9.900;2023-04-21T08:52:55;7.40;;;6.57;;
47804;SDS011;33568;45.286;9.900;2023-04-21T08:55:25;8.55;;;6.43;;
47804;SDS011;33568;45.286;9.900;2023-04-21T08:57:54;7.70;;;6.68;;
47804;SDS011;33568;45.286;9.900;2023-04-21T09:00:20;8.45;;;7.55;;
47804;SDS011;33568;45.286;9.900;2023-04-21T09:02:57;10.27;;;7.47;;
47804;SDS011;33568;45.286;9.900;2023-04-21T09:05:25;7.75;;;7.05;;
47804;SDS011;33568;45.286;9.900;2023-04-21T09:08:05;8.27;;;7.47;;
47804;SDS011;33568;45.286;9.900;2023-04-21T09:10:49;11.48;;;7.43;;
47804;SDS011;33568;45.286;9.900;2023-04-21T09:13:16;8.52;;;7.72;;
47804;SDS011;33568;45.286;9.900;2023-04-21T09:15:44;11.60;;;8.48;;
47804;SDS011;33568;45.286;9.900;2023-04-21T09:18:23;8.95;;;7.13;;
47804;SDS011;33568;45.286;9.900;2023-04-21T09:20:51;8.50;;;7.70;;
47804;SDS011;33568;45.286;9.900;2023-04-21T09:23:42;9.80;;;7.97;;
47804;SDS011;33568;45.286;9.900;2023-04-21T09:26:09;8.75;;;7.90;;
47804;SDS011;33568;45.286;9.900;2023-04-21T09:28:39;8.73;;;7.70;;
47804;SDS011;33568;45.286;9.900;2023-04-21T09:31:11;8.15;;;7.32;;
47804;SDS011;33568;45.286;9.900;2023-04-21T09:33:43;8.80;;;7.43;;
47804;SDS011;33568;45.286;9.900;2023-04-21T09:36:17;9.15;;;7.75;;
47804;SDS011;33568;45.286;9.900;2023-04-21T09:38:58;8.85;;;7.93;;
47804;SDS011;33568;45.286;9.900;2023-04-21T09:41:30;10.52;;;8.23;;
47804;SDS011;33568;45.286;9.900;2023-04-21T09:43:57;8.85;;;8.05;;
47804;SDS011;33568;45.286;9.900;2023-04-21T09:46:29;9.30;;;7.85;;
47804;SDS011;33568;45.286;9.900;2023-04-21T09:48:59;9.05;;;8.20;;
47804;SDS011;33568;45.286;9.900;2023-04-21T09:51:26;12.77;;;8.88;;
47804;SDS011;33568;45.286;9.900;2023-04-21T09:53:59;9.10;;;8.20;;
47804;SDS011;33568;45.286;9.900;2023-04-21T09:56:32;10.43;;;9.30;;
47804;SDS011;33568;45.286;9.900;2023-04-21T09:59:05;9.50;;;8.05;;
47804;SDS011;33568;45.286;9.900;2023-04-21T10:01:34;8.27;;;7.10;;
47804;SDS011;33568;45.286;9.900;2023-04-21T10:04:03;11.60;;;7.50;;
47804;SDS011;33568;45.286;9.900;2023-04-21T10:06:30;9.23;;;8.32;;
47804;SDS011;33568;45.286;9.900;2023-04-21T10:08:57;9.88;;;7.88;;
47804;SDS011;33568;45.286;9.900;2023-04-21T10:11:24;10.88;;;9.32;;
47804;SDS011;33568;45.286;9.900;2023-04-21T10:13:51;8.82;;;8.02;;
47804;SDS011;33568;45.286;9.900;2023-04-21T10:16:17;8.50;;;7.65;;
47804;SDS011;33568;45.286;9.900;2023-04-21T10:18:46;11.75;;;9.05;;
47804;SDS011;33568;45.286;9.900;2023-04-21T10:23:47;8.35;;;7.43;;
47804;SDS011;33568;45.286;9.900;2023-04-21T10:26:26;7.50;;;6.85;;
47804;SDS011;33568;45.286;9.900;2023-04-21T10:29:00;7.95;;;7.15;;
47804;SDS011;33568;45.286;9.900;2023-04-21T10:31:35;8.68;;;7.55;;
47804;SDS011;33568;45.286;9.900;2023-04-21T10:36:34;9.13;;;7.85;;
47804;SDS011;33568;45.286;9.900;2023-04-21T10:39:29;6.95;;;6.25;;
47804;SDS011;33568;45.286;9.900;2023-04-21T10:44:50;7.60;;;6.38;;
47804;SDS011;33568;45.286;9.900;2023-04-21T10:47:40;8.63;;;6.63;;
47804;SDS011;33568;45.286;9.900;2023-04-21T10:50:14;7.90;;;7.10;;
47804;SDS011;33568;45.286;9.900;2023-04-21T10:52:44;7.18;;;6.47;;
47804;SDS011;33568;45.286;9.900;2023-04-21T10:55:12;7.57;;;6.80;;
47804;SDS011;33568;45.286;9.900;2023-04-21T10:57:41;6.78;;;6.18;;
47804;SDS011;33568;45.286;9.900;2023-04-21T11:00:09;7.13;;;6.43;;
47804;SDS011;33568;45.286;9.900;2023-04-21T11:02:36;8.38;;;7.13;;
47804;SDS011;33568;45.286;9.900;2023-04-21T11:05:03;9.48;;;7.38;;
47804;SDS011;33568;45.286;9.900;2023-04-21T11:07:30;11.68;;;8.75;;
47804;SDS011;33568;45.286;9.900;2023-04-21T11:12:26;8.23;;;7.40;;
47804;SDS011;33568;45.286;9.900;2023-04-21T11:14:54;8.00;;;6.38;;
47804;SDS011;33568;45.286;9.900;2023-04-21T11:17:21;7.15;;;6.45;;
47804;SDS011;33568;45.286;9.900;2023-04-21T11:19:50;12.45;;;6.68;;
47804;SDS011;33568;45.286;9.900;2023-04-21T11:22:24;7.57;;;6.70;;
47804;SDS011;33568;45.286;9.900;2023-04-21T11:24:55;8.10;;;6.93;;
47804;SDS011;33568;45.286;9.900;2023-04-21T11:27:24;7.03;;;6.43;;
47804;SDS011;33568;45.286;9.900;2023-04-21T11:29:51;10.48;;;9.23;;
47804;SDS011;33568;45.286;9.900;2023-04-21T11:32:18;12.50;;;8.90;;
47804;SDS011;33568;45.286;9.900;2023-04-21T11:34:46;7.25;;;6.20;;
47804;SDS011;33568;45.286;9.900;2023-04-21T11:37:14;7.22;;;6.53;;
47804;SDS011;33568;45.286;9.900;2023-04-21T11:39:42;8.27;;;6.97;;
47804;SDS011;33568;45.286;9.900;2023-04-21T11:42:09;7.50;;;6.72;;
47804;SDS011;33568;45.286;9.900;2023-04-21T11:44:41;7.97;;;7.05;;
47804;SDS011;33568;45.286;9.900;2023-04-21T11:47:11;6.93;;;6.32;;
47804;SDS011;33568;45.286;9.900;2023-04-21T11:49:42;8.60;;;7.80;;
47804;SDS011;33568;45.286;9.900;2023-04-21T11:52:20;8.32;;;7.63;;
47804;SDS011;33568;45.286;9.900;2023-04-21T11:54:55;8.60;;;7.72;;
47804;SDS011;33568;45.286;9.900;2023-04-21T11:57:27;10.50;;;7.25;;
47804;SDS011;33568;45.286;9.900;2023-04-21T12:00:01;7.65;;;6.95;;
47804;SDS011;33568;45.286;9.900;2023-04-21T12:02:33;10.55;;;8.85;;
47804;SDS011;33568;45.286;9.900;2023-04-21T12:07:27;10.10;;;9.15;;
47804;SDS011;33568;45.286;9.900;2023-04-21T12:09:55;8.70;;;7.85;;
47804;SDS011;33568;45.286;9.900;2023-04-21T12:12:21;8.25;;;7.45;;
47804;SDS011;33568;45.286;9.900;2023-04-21T12:14:49;11.02;;;8.35;;
47804;SDS011;33568;45.286;9.900;2023-04-21T12:17:16;10.23;;;8.73;;
47804;SDS011;33568;45.286;9.900;2023-04-21T12:19:43;9.80;;;8.80;;
47804;SDS011;33568;45.286;9.900;2023-04-21T12:22:12;15.20;;;9.43;;
47804;SDS011;33568;45.286;9.900;2023-04-21T12:24:47;10.27;;;9.05;;
47804;SDS011;33568;45.286;9.900;2023-04-21T12:27:14;10.30;;;7.55;;
47804;SDS011;33568;45.286;9.900;2023-04-21T12:29:40;9.38;;;7.45;;
47804;SDS011;33568;45.286;9.900;2023-04-21T12:32:07;9.07;;;7.95;;
47804;SDS011;33568;45.286;9.900;2023-04-21T12:34:34;9.50;;;8.60;;
47804;SDS011;33568;45.286;9.900;2023-04-21T12:37:01;9.13;;;8.20;;
47804;SDS011;33568;45.286;9.900;2023-04-21T12:39:27;8.07;;;7.05;;
47804;SDS011;33568;45.286;9.900;2023-04-21T12:41:54;7.03;;;6.00;;
47804;SDS011;33568;45.286;9.900;2023-04-21T12:44:22;6.18;;;5.57;;
47804;SDS011;33568;45.286;9.900;2023-04-21T12:46:48;5.82;;;5.10;;
47804;SDS011;33568;45.286;9.900;2023-04-21T12:49:15;5.90;;;5.40;;
47804;SDS011;33568;45.286;9.900;2023-04-21T12:51:42;9.60;;;5.38;;
47804;SDS011;33568;45.286;9.900;2023-04-21T12:54:09;9.18;;;8.27;;
47804;SDS011;33568;45.286;9.900;2023-04-21T12:56:37;8.75;;;7.85;;
47804;SDS011;33568;45.286;9.900;2023-04-21T12:59:08;9.02;;;8.02;;
47804;SDS011;33568;45.286;9.900;2023-04-21T13:01:35;8.70;;;7.85;;
47804;SDS011;33568;45.286;9.900;2023-04-21T13:04:03;8.55;;;7.75;;
47804;SDS011;33568;45.286;9.900;2023-04-21T13:06:29;8.15;;;7.30;;
47804;SDS011;33568;45.286;9.900;2023-04-21T13:08:57;7.50;;;6.82;;
47804;SDS011;33568;45.286;9.900;2023-04-21T13:11:24;10.50;;;6.85;;
47804;SDS011;33568;45.286;9.900;2023-04-21T13:13:51;9.35;;;7.18;;
47804;SDS011;33568;45.286;9.900;2023-04-21T13:16:17;7.53;;;6.72;;
47804;SDS011;33568;45.286;9.900;2023-04-21T13:18:43;7.53;;;6.70;;
47804;SDS011;33568;45.286;9.900;2023-04-21T13:21:10;7.50;;;6.43;;
47804;SDS011;33568;45.286;9.900;2023-04-21T13:23:37;7.15;;;6.45;;
47804;SDS011;33568;45.286;9.900;2023-04-21T13:26:04;7.00;;;6.30;;
47804;SDS011;33568;45.286;9.900;2023-04-21T13:28:30;8.25;;;7.40;;
47804;SDS011;33568;45.286;9.900;2023-04-21T13:30:57;7.45;;;6.68;;
47804;SDS011;33568;45.286;9.900;2023-04-21T13:33:23;10.43;;;7.50;;
47804;SDS011;33568;45.286;9.900;2023-04-21T13:35:50;7.85;;;7.05;;
47804;SDS011;33568;45.286;9.900;2023-04-21T13:38:16;7.70;;;6.93;;
47804;SDS011;33568;45.286;9.900;2023-04-21T13:40:43;8.05;;;7.18;;
47804;SDS011;33568;45.286;9.900;2023-04-21T13:43:10;7.65;;;6.70;;
47804;SDS011;33568;45.286;9.900;2023-04-21T13:45:37;8.07;;;7.28;;
47804;SDS011;33568;45.286;9.900;2023-04-21T13:48:04;7.63;;;6.93;;
47804;SDS011;33568;45.286;9.900;2023-04-21T13:50:30;8.20;;;6.47;;
47804;SDS011;33568;45.286;9.900;2023-04-21T13:52:57;6.80;;;5.95;;
47804;SDS011;33568;45.286;9.900;2023-04-21T13:55:23;11.00;;;6.32;;
47804;SDS011;33568;45.286;9.900;2023-04-21T13:57:49;8.45;;;7.65;;
47804;SDS011;33568;45.286;9.900;2023-04-21T14:00:16;9.85;;;8.88;;
47804;SDS011;33568;45.286;9.900;2023-04-21T14:02:43;9.45;;;8.23;;
47804;SDS011;33568;45.286;9.900;2023-04-21T14:05:09;9.73;;;8.75;;
47804;SDS011;33568;45.286;9.900;2023-04-21T14:07:36;10.43;;;8.93;;
47804;SDS011;33568;45.286;9.900;2023-04-21T14:10:02;9.32;;;8.43;;
47804;SDS011;33568;45.286;9.900;2023-04-21T14:12:29;8.88;;;8.00;;
47804;SDS011;33568;45.286;9.900;2023-04-21T14:14:55;10.05;;;8.77;;
47804;SDS011;33568;45.286;9.900;2023-04-21T14:17:22;11.68;;;8.88;;
47804;SDS011;33568;45.286;9.900;2023-04-21T14:19:48;10.68;;;8.85;;
47804;SDS011;33568;45.286;9.900;2023-04-21T14:22:15;10.75;;;9.60;;
47804;SDS011;33568;45.286;9.900;2023-04-21T14:24:41;12.48;;;8.90;;
47804;SDS011;33568;45.286;9.900;2023-04-21T14:27:08;9.85;;;8.85;;
47804;SDS011;33568;45.286;9.900;2023-04-21T14:29:35;8.90;;;8.05;;
47804;SDS011;33568;45.286;9.900;2023-04-21T14:32:01;9.80;;;8.23;;
47804;SDS011;33568;45.286;9.900;2023-04-21T14:34:28;8.23;;;7.43;;
47804;SDS011;33568;45.286;9.900;2023-04-21T14:36:54;8.98;;;8.07;;
47804;SDS011;33568;45.286;9.900;2023-04-21T14:39:21;8.88;;;7.82;;
47804;SDS011;33568;45.286;9.900;2023-04-21T14:41:48;10.38;;;7.93;;
47804;SDS011;33568;45.286;9.900;2023-04-21T14:44:15;10.27;;;8.30;;
47804;SDS011;33568;45.286;9.900;2023-04-21T14:46:43;9.25;;;8.35;;
47804;SDS011;33568;45.286;9.900;2023-04-21T14:49:13;10.63;;;7.95;;
47804;SDS011;33568;45.286;9.900;2023-04-21T14:51:40;8.68;;;7.82;;
47804;SDS011;33568;45.286;9.900;2023-04-21T14:54:06;13.15;;;8.68;;
47804;SDS011;33568;45.286;9.900;2023-04-21T14:56:33;9.98;;;7.55;;
47804;SDS011;33568;45.286;9.900;2023-04-21T14:59:00;9.52;;;7.82;;
47804;SDS011;33568;45.286;9.900;2023-04-21T15:01:27;9.63;;;7.28;;
47804;SDS011;33568;45.286;9.900;2023-04-21T15:03:53;10.25;;;7.53;;
47804;SDS011;33568;45.286;9.900;2023-04-21T15:06:22;7.75;;;7.05;;
47804;SDS011;33568;45.286;9.900;2023-04-21T15:08:48;11.43;;;9.82;;
47804;SDS011;33568;45.286;9.900;2023-04-21T15:11:16;13.88;;;11.30;;
47804;SDS011;33568;45.286;9.900;2023-04-21T15:13:42;11.65;;;10.55;;
47804;SDS011;33568;45.286;9.900;2023-04-21T15:16:09;11.57;;;10.35;;
47804;SDS011;33568;45.286;9.900;2023-04-21T15:18:35;10.65;;;9.55;;
47804;SDS011;33568;45.286;9.900;2023-04-21T15:21:02;12.40;;;10.10;;
47804;SDS011;33568;45.286;9.900;2023-04-21T15:23:28;11.10;;;10.00;;
47804;SDS011;33568;45.286;9.900;2023-04-21T15:25:55;16.70;;;9.77;;
47804;SDS011;33568;45.286;9.900;2023-04-21T15:28:22;11.32;;;10.23;;
47804;SDS011;33568;45.286;9.900;2023-04-21T15:30:49;11.20;;;9.93;;
47804;SDS011;33568;45.286;9.900;2023-04-21T15:33:15;11.05;;;9.93;;
47804;SDS011;33568;45.286;9.900;2023-04-21T15:35:42;10.43;;;9.35;;
47804;SDS011;33568;45.286;9.900;2023-04-21T15:38:08;10.98;;;8.63;;
47804;SDS011;33568;45.286;9.900;2023-04-21T15:40:35;9.57;;;8.65;;
47804;SDS011;33568;45.286;9.900;2023-04-21T15:43:01;9.07;;;8.27;;
47804;SDS011;33568;45.286;9.900;2023-04-21T15:45:28;9.95;;;8.98;;
47804;SDS011;33568;45.286;9.900;2023-04-21T15:47:54;9.30;;;8.40;;
47804;SDS011;33568;45.286;9.900;2023-04-21T15:50:20;11.10;;;8.90;;
47804;SDS011;33568;45.286;9.900;2023-04-21T15:52:47;10.63;;;9.52;;
47804;SDS011;33568;45.286;9.900;2023-04-21T15:55:13;10.48;;;9.48;;
47804;SDS011;33568;45.286;9.900;2023-04-21T15:57:40;11.07;;;9.98;;
47804;SDS011;33568;45.286;9.900;2023-04-21T16:00:07;11.32;;;10.05;;
47804;SDS011;33568;45.286;9.900;2023-04-21T16:02:35;12.02;;;10.70;;
47804;SDS011;33568;45.286;9.900;2023-04-21T16:05:02;11.75;;;10.45;;
47804;SDS011;33568;45.286;9.900;2023-04-21T16:07:29;13.75;;;11.02;;
47804;SDS011;33568;45.286;9.900;2023-04-21T16:09:55;12.98;;;11.68;;
47804;SDS011;33568;45.286;9.900;2023-04-21T16:12:22;13.43;;;12.10;;
47804;SDS011;33568;45.286;9.900;2023-04-21T16:14:48;17.00;;;12.70;;
47804;SDS011;33568;45.286;9.900;2023-04-21T16:17:15;11.80;;;10.70;;
47804;SDS011;33568;45.286;9.900;2023-04-21T16:19:41;15.15;;;12.07;;
47804;SDS011;33568;45.286;9.900;2023-04-21T16:22:10;13.18;;;11.88;;
47804;SDS011;33568;45.286;9.900;2023-04-21T16:24:37;12.35;;;11.15;;
47804;SDS011;33568;45.286;9.900;2023-04-21T16:27:03;13.38;;;12.05;;
47804;SDS011;33568;45.286;9.900;2023-04-21T16:29:30;14.05;;;11.93;;
47804;SDS011;33568;45.286;9.900;2023-04-21T16:31:56;13.15;;;11.77;;
47804;SDS011;33568;45.286;9.900;2023-04-21T16:34:23;12.15;;;10.95;;
47804;SDS011;33568;45.286;9.900;2023-04-21T16:36:49;14.25;;;11.15;;
47804;SDS011;33568;45.286;9.900;2023-04-21T16:39:16;12.80;;;11.60;;
47804;SDS011;33568;45.286;9.900;2023-04-21T16:41:42;15.10;;;12.30;;
47804;SDS011;33568;45.286;9.900;2023-04-21T16:44:09;13.77;;;12.25;;
47804;SDS011;33568;45.286;9.900;2023-04-21T16:46:35;16.08;;;13.65;;
47804;SDS011;33568;45.286;9.900;2023-04-21T16:49:02;12.75;;;11.48;;
47804;SDS011;33568;45.286;9.900;2023-04-21T16:51:28;14.90;;;12.55;;
47804;SDS011;33568;45.286;9.900;2023-04-21T16:53:55;13.98;;;12.57;;
47804;SDS011;33568;45.286;9.900;2023-04-21T16:56:22;18.67;;;16.70;;
47804;SDS011;33568;45.286;9.900;2023-04-21T16:58:49;16.17;;;14.50;;
47804;SDS011;33568;45.286;9.900;2023-04-21T17:01:15;18.05;;;14.02;;
47804;SDS011;33568;45.286;9.900;2023-04-21T17:03:42;18.77;;;13.73;;
47804;SDS011;33568;45.286;9.900;2023-04-21T17:06:08;13.00;;;11.77;;